createdAt,value
2022-08-26T00:01:52.655Z,20.74
2022-08-26T00:04:22.148Z,20.60
2022-08-26T00:06:49.933Z,20.80
2022-08-26T00:09:17.714Z,20.90
2022-08-26T00:11:45.641Z,20.45
2022-08-26T00:14:13.618Z,20.27
2022-08-26T00:16:47.668Z,20.17
2022-08-26T00:19:17.009Z,19.98
2022-08-26T00:21:44.741Z,20.01
2022-08-26T00:24:13.214Z,20.03
2022-08-26T00:26:41.315Z,20.32
2022-08-26T00:29:09.399Z,20.09
2022-08-26T00:31:37.304Z,19.86
2022-08-26T00:34:06.316Z,19.88
2022-08-26T00:36:34.102Z,19.89
2022-08-26T00:39:01.902Z,20.04
2022-08-26T00:41:30.081Z,19.84
2022-08-26T00:43:57.761Z,19.94
2022-08-26T00:46:28.796Z,19.75
2022-08-26T00:49:01.308Z,19.80
2022-08-26T00:51:31.660Z,19.73
2022-08-26T00:54:03.889Z,19.62
2022-08-26T00:56:34.587Z,19.64
2022-08-26T00:59:07.191Z,19.51
2022-08-26T01:01:35.460Z,19.57
2022-08-26T01:04:03.439Z,19.45
2022-08-26T01:06:32.847Z,19.40
2022-08-26T01:09:01.349Z,19.40
2022-08-26T01:11:29.226Z,19.41
2022-08-26T01:13:58.823Z,19.30
2022-08-26T01:16:26.702Z,19.12
2022-08-26T01:18:56.718Z,19.15
2022-08-26T01:21:28.831Z,19.18
2022-08-26T01:23:59.168Z,18.98
2022-08-26T01:26:29.655Z,18.91
2022-08-26T01:28:59.208Z,18.93
2022-08-26T01:31:30.989Z,18.92
2022-08-26T01:34:03.131Z,19.03
2022-08-26T01:36:30.954Z,18.97
2022-08-26T01:38:59.904Z,19.01
2022-08-26T01:41:29.163Z,18.92
2022-08-26T01:43:58.058Z,18.80
2022-08-26T01:46:27.210Z,18.59
2022-08-26T01:48:56.037Z,18.75
2022-08-26T01:51:24.892Z,18.73
2022-08-26T01:53:52.551Z,18.77
2022-08-26T01:56:22.793Z,18.69
2022-08-26T01:58:53.173Z,18.90
2022-08-26T02:01:22.704Z,18.67
2022-08-26T02:04:02.595Z,18.80
2022-08-26T02:06:30.671Z,18.62
2022-08-26T02:09:01.323Z,18.57
2022-08-26T02:11:30.368Z,18.52
2022-08-26T02:14:02.068Z,18.66
2022-08-26T02:16:34.383Z,18.60
2022-08-26T02:19:04.510Z,18.67
2022-08-26T02:21:34.848Z,18.66
2022-08-26T02:24:10.755Z,18.83
2022-08-26T02:26:41.119Z,18.85
2022-08-26T02:29:12.831Z,18.79
2022-08-26T02:31:42.444Z,18.75
2022-08-26T02:34:11.816Z,18.98
2022-08-26T02:36:39.608Z,18.89
2022-08-26T02:39:07.511Z,18.96
2022-08-26T02:41:36.317Z,18.90
2022-08-26T02:44:14.237Z,18.94
2022-08-26T02:46:46.779Z,19.04
2022-08-26T02:49:14.897Z,19.11
2022-08-26T02:51:43.181Z,19.04
2022-08-26T02:54:10.888Z,19.06
2022-08-26T02:56:38.525Z,19.04
2022-08-26T02:59:06.868Z,19.20
2022-08-26T03:01:37.094Z,19.12
2022-08-26T03:04:06.764Z,19.12
2022-08-26T03:06:34.502Z,19.12
2022-08-26T03:09:04.796Z,19.21
2022-08-26T03:11:33.221Z,19.27
2022-08-26T03:14:03.397Z,19.14
2022-08-26T03:16:32.817Z,19.15
2022-08-26T03:19:02.857Z,19.19
2022-08-26T03:21:31.229Z,19.16
2022-08-26T03:23:59.792Z,19.21
2022-08-26T03:26:29.231Z,19.22
2022-08-26T03:29:14.928Z,19.20
2022-08-26T03:31:43.026Z,19.24
2022-08-26T03:34:12.102Z,19.23
2022-08-26T03:36:39.815Z,19.28
2022-08-26T03:39:09.373Z,19.24
2022-08-26T03:41:37.425Z,19.22
2022-08-26T03:44:05.846Z,19.26
2022-08-26T03:46:34.808Z,19.21
2022-08-26T03:49:05.132Z,19.25
2022-08-26T03:51:35.519Z,19.18
2022-08-26T03:54:08.292Z,19.24
2022-08-26T03:56:36.580Z,19.26
2022-08-26T03:59:04.552Z,19.30
2022-08-26T04:01:32.559Z,19.32
2022-08-26T04:04:00.827Z,19.35
2022-08-26T04:06:31.472Z,19.27
2022-08-26T04:09:02.843Z,19.32
2022-08-26T04:11:34.293Z,19.31
2022-08-26T04:14:05.537Z,19.39
2022-08-26T04:16:35.165Z,19.21
2022-08-26T04:19:03.381Z,19.20
2022-08-26T04:21:31.187Z,19.17
2022-08-26T04:24:00.268Z,19.18
2022-08-26T04:26:36.894Z,19.25
2022-08-26T04:29:09.350Z,19.24
2022-08-26T04:31:37.762Z,19.22
2022-08-26T04:34:07.207Z,19.30
2022-08-26T04:36:35.607Z,19.24
2022-08-26T04:39:05.437Z,19.40
2022-08-26T04:41:33.114Z,19.37
2022-08-26T04:44:02.094Z,19.31
2022-08-26T04:46:29.811Z,19.36
2022-08-26T04:48:57.531Z,19.36
2022-08-26T04:51:28.404Z,19.32
2022-08-26T04:53:56.949Z,19.36
2022-08-26T04:56:26.695Z,19.32
2022-08-26T04:58:54.492Z,19.42
2022-08-26T05:01:22.438Z,19.38
2022-08-26T05:03:51.791Z,19.39
2022-08-26T05:06:20.549Z,19.35
2022-08-26T05:08:49.838Z,19.31
2022-08-26T05:11:17.610Z,19.38
2022-08-26T05:13:47.529Z,19.39
2022-08-26T05:16:17.508Z,19.37
2022-08-26T05:18:45.683Z,19.48
2022-08-26T05:21:18.540Z,19.63
2022-08-26T05:23:46.164Z,19.67
2022-08-26T05:26:13.871Z,19.67
2022-08-26T05:28:44.308Z,19.89
2022-08-26T05:31:15.569Z,20.05
2022-08-26T05:33:45.585Z,20.03
2022-08-26T05:36:16.140Z,20.01
2022-08-26T05:38:44.307Z,19.87
2022-08-26T05:41:16.691Z,20.04
2022-08-26T05:43:44.943Z,20.05
2022-08-26T05:46:14.387Z,20.06
2022-08-26T05:48:44.377Z,20.21
2022-08-26T05:51:12.842Z,20.33
2022-08-26T05:53:43.961Z,20.37
2022-08-26T05:56:24.724Z,20.27
2022-08-26T05:58:52.922Z,20.15
2022-08-26T06:01:23.775Z,20.18
2022-08-26T06:03:53.319Z,20.18
2022-08-26T06:06:27.361Z,20.14
2022-08-26T06:08:57.421Z,20.30
2022-08-26T06:11:25.546Z,20.36
2022-08-26T06:13:53.644Z,20.46
2022-08-26T06:16:24.788Z,20.51
2022-08-26T06:18:54.140Z,20.60
2022-08-26T06:21:23.924Z,20.57
2022-08-26T06:24:10.392Z,20.71
2022-08-26T06:26:38.801Z,20.70
2022-08-26T06:29:10.383Z,20.54
2022-08-26T06:31:40.085Z,20.59
2022-08-26T06:34:10.741Z,20.61
2022-08-26T06:36:40.362Z,20.66
2022-08-26T06:39:13.392Z,20.70
2022-08-26T06:41:44.905Z,20.74
2022-08-26T06:44:13.910Z,20.69
2022-08-26T06:46:44.275Z,20.89
2022-08-26T06:49:12.349Z,20.90
2022-08-26T06:51:41.244Z,21.02
2022-08-26T06:54:09.708Z,20.95
2022-08-26T06:56:40.304Z,21.20
2022-08-26T06:59:08.689Z,21.55
2022-08-26T07:01:39.092Z,21.65
2022-08-26T07:04:14.410Z,21.58
2022-08-26T07:06:48.690Z,21.43
2022-08-26T07:09:17.374Z,21.47
2022-08-26T07:11:45.783Z,21.37
2022-08-26T07:14:13.426Z,21.23
2022-08-26T07:16:42.179Z,21.27
2022-08-26T07:19:11.049Z,21.38
2022-08-26T07:21:41.503Z,21.21
2022-08-26T07:24:10.543Z,21.13
2022-08-26T07:26:39.339Z,21.04
2022-08-26T07:29:12.295Z,21.13
2022-08-26T07:31:42.743Z,21.09
2022-08-26T07:34:11.296Z,21.21
2022-08-26T07:36:40.687Z,21.23
2022-08-26T07:39:08.696Z,21.09
2022-08-26T07:41:36.897Z,21.33
2022-08-26T07:44:06.044Z,21.52
2022-08-26T07:46:36.117Z,21.82
2022-08-26T07:49:04.066Z,22.23
2022-08-26T07:51:32.864Z,22.10
2022-08-26T07:54:02.040Z,22.39
2022-08-26T07:56:29.704Z,22.62
2022-08-26T07:58:57.911Z,22.45
2022-08-26T08:01:26.882Z,22.22
2022-08-26T08:03:55.920Z,22.43
2022-08-26T08:06:27.255Z,22.59
2022-08-26T08:08:55.582Z,22.53
2022-08-26T08:11:26.292Z,22.58
2022-08-26T08:13:56.537Z,22.40
2022-08-26T08:16:32.304Z,22.64
2022-08-26T08:19:02.124Z,22.85
2022-08-26T08:21:31.458Z,23.01
2022-08-26T08:23:59.810Z,22.59
2022-08-26T08:26:28.834Z,22.67
2022-08-26T08:28:58.152Z,22.88
2022-08-26T08:31:56.260Z,22.78
2022-08-26T08:34:16.311Z,22.73
2022-08-26T08:36:46.599Z,22.80
2022-08-26T08:39:14.360Z,23.30
2022-08-26T08:41:54.844Z,23.24
2022-08-26T08:47:02.606Z,23.05
2022-08-26T08:49:31.022Z,23.26
2022-08-26T08:52:02.119Z,23.45
2022-08-26T08:54:32.050Z,23.16
2022-08-26T08:57:11.525Z,23.05
2022-08-26T08:59:44.131Z,22.76
2022-08-26T09:02:20.043Z,22.47
2022-08-26T09:05:07.343Z,22.54
2022-08-26T09:07:37.604Z,22.64
2022-08-26T09:10:13.314Z,22.30
2022-08-26T09:12:44.064Z,22.98
2022-08-26T09:15:17.976Z,23.14
2022-08-26T09:17:50.876Z,23.13
2022-08-26T09:20:21.927Z,23.18
2022-08-26T09:22:49.726Z,23.17
2022-08-26T09:25:18.683Z,23.12
2022-08-26T09:27:50.337Z,22.97
2022-08-26T09:30:29.398Z,22.69
2022-08-26T09:33:03.400Z,22.87
2022-08-26T09:35:40.129Z,22.52
2022-08-26T09:38:23.500Z,22.99
2022-08-26T09:40:59.394Z,22.99
2022-08-26T09:43:29.452Z,22.64
2022-08-26T09:46:12.051Z,22.38
2022-08-26T09:48:41.445Z,22.48
2022-08-26T09:51:28.795Z,22.61
2022-08-26T09:53:58.522Z,22.50
2022-08-26T09:56:27.906Z,22.43
2022-08-26T09:58:58.086Z,22.30
2022-08-26T10:01:32.225Z,22.15
2022-08-26T10:04:09.868Z,22.14
2022-08-26T10:06:41.705Z,22.17
2022-08-26T10:09:12.252Z,22.20
2022-08-26T10:11:43.659Z,22.19
2022-08-26T10:14:17.538Z,22.18
2022-08-26T10:16:49.363Z,22.36
2022-08-26T10:19:20.857Z,22.35
2022-08-26T10:21:54.099Z,22.35
2022-08-26T10:24:24.506Z,22.36
2022-08-26T10:27:01.057Z,22.45
2022-08-26T10:29:34.377Z,22.26
2022-08-26T10:32:04.629Z,22.23
2022-08-26T10:34:33.228Z,22.09
2022-08-26T10:37:14.592Z,22.10
2022-08-26T10:39:49.142Z,21.95
2022-08-26T10:42:24.163Z,21.86
2022-08-26T10:44:58.702Z,21.73
2022-08-26T10:47:32.547Z,21.73
2022-08-26T10:50:02.980Z,21.72
2022-08-26T10:52:37.171Z,21.45
2022-08-26T10:55:12.923Z,21.42
2022-08-26T10:57:45.133Z,21.41
2022-08-26T11:00:35.564Z,21.55
2022-08-26T11:03:21.696Z,21.92
2022-08-26T11:06:16.702Z,21.91
2022-08-26T11:08:47.168Z,21.59
2022-08-26T11:11:46.943Z,21.40
2022-08-26T11:14:41.119Z,21.53
2022-08-26T11:17:56.263Z,21.90
2022-08-26T11:20:34.262Z,22.12
2022-08-26T11:23:35.933Z,21.88
2022-08-26T11:26:36.319Z,21.99
2022-08-26T11:29:12.077Z,21.85
2022-08-26T11:31:58.841Z,21.80
2022-08-26T11:34:57.823Z,22.16
2022-08-26T11:37:33.096Z,22.20
2022-08-26T11:40:02.950Z,22.17
2022-08-26T11:42:36.071Z,22.34
2022-08-26T11:45:17.132Z,22.48
2022-08-26T11:47:46.416Z,22.43
2022-08-26T11:50:18.261Z,21.86
2022-08-26T11:52:53.292Z,21.71
2022-08-26T11:55:23.406Z,21.96
2022-08-26T11:57:53.928Z,21.95
2022-08-26T12:00:33.386Z,22.00
2022-08-26T12:03:03.542Z,21.93
2022-08-26T12:05:36.178Z,22.18
2022-08-26T12:08:09.569Z,22.00
2022-08-26T12:10:37.744Z,22.06
2022-08-26T12:13:07.981Z,22.00
2022-08-26T12:15:37.151Z,22.22
2022-08-26T12:18:29.271Z,22.05
2022-08-26T12:21:00.212Z,22.21
2022-08-26T12:23:37.804Z,21.99
2022-08-26T12:26:10.922Z,22.16
2022-08-26T12:28:43.877Z,22.01
2022-08-26T12:31:14.150Z,22.42
2022-08-26T12:33:45.159Z,22.24
2022-08-26T12:36:12.983Z,22.35
2022-08-26T12:38:40.884Z,22.69
2022-08-26T12:41:08.715Z,22.84
2022-08-26T12:43:42.564Z,22.69
2022-08-26T12:46:14.664Z,22.55
2022-08-26T12:48:45.664Z,22.50
2022-08-26T12:51:35.236Z,22.53
2022-08-26T12:54:06.572Z,22.14
2022-08-26T12:56:38.065Z,21.89
2022-08-26T12:59:10.298Z,21.68
2022-08-26T13:01:44.028Z,21.39
2022-08-26T13:04:34.667Z,21.46
2022-08-26T13:07:22.887Z,21.31
2022-08-26T13:09:52.149Z,21.64
2022-08-26T13:12:28.083Z,21.55
2022-08-26T13:14:55.929Z,21.36
2022-08-26T13:17:25.544Z,21.09
2022-08-26T13:19:53.167Z,21.34
2022-08-26T13:22:24.150Z,21.37
2022-08-26T13:24:54.199Z,21.33
2022-08-26T13:27:23.629Z,21.58
2022-08-26T13:29:51.645Z,21.39
2022-08-26T13:32:20.365Z,21.38
2022-08-26T13:34:51.476Z,21.47
2022-08-26T13:37:22.182Z,21.22
2022-08-26T13:39:56.984Z,21.56
2022-08-26T13:42:24.654Z,21.72
2022-08-26T13:44:57.750Z,21.56
2022-08-26T13:47:26.051Z,21.43
2022-08-26T13:49:57.109Z,21.36
2022-08-26T13:52:30.591Z,21.73
2022-08-26T13:54:59.052Z,21.57
2022-08-26T13:57:28.246Z,21.77
2022-08-26T13:59:57.008Z,21.86
2022-08-26T14:02:25.160Z,22.06
2022-08-26T14:04:53.666Z,21.79
2022-08-26T14:07:23.299Z,21.79
2022-08-26T14:09:50.940Z,21.88
2022-08-26T14:12:18.917Z,22.01
2022-08-26T14:14:46.532Z,22.04
2022-08-26T14:17:18.991Z,22.13
2022-08-26T14:19:48.152Z,21.92
2022-08-26T14:22:17.232Z,22.02
2022-08-26T14:24:46.276Z,22.30
2022-08-26T14:27:14.681Z,22.05
2022-08-26T14:29:42.345Z,22.22
2022-08-26T14:32:13.068Z,22.20
2022-08-26T14:34:41.415Z,22.11
2022-08-26T14:37:13.550Z,21.94
2022-08-26T14:39:42.910Z,21.75
2022-08-26T14:42:11.988Z,21.79
2022-08-26T14:44:45.786Z,21.87
2022-08-26T14:47:13.471Z,21.48
2022-08-26T14:49:41.102Z,21.31
2022-08-26T14:52:08.736Z,21.15
2022-08-26T14:54:35.388Z,20.94
2022-08-26T14:57:06.474Z,21.03
2022-08-26T14:59:37.810Z,20.75
2022-08-26T15:02:06.845Z,21.04
2022-08-26T15:04:35.048Z,20.65
2022-08-26T15:07:03.175Z,20.60
2022-08-26T15:09:34.029Z,20.80
2022-08-26T15:12:01.687Z,20.79
2022-08-26T15:14:32.791Z,20.60
2022-08-26T15:17:02.371Z,20.67
2022-08-26T15:19:30.068Z,20.85
2022-08-26T15:21:57.800Z,20.52
2022-08-26T15:24:28.718Z,20.76
2022-08-26T15:26:56.390Z,20.68
2022-08-26T15:29:24.777Z,20.53
2022-08-26T15:31:52.537Z,20.57
2022-08-26T15:34:24.968Z,20.76
2022-08-26T15:36:52.576Z,20.95
2022-08-26T15:39:20.975Z,21.04
2022-08-26T15:41:48.607Z,21.16
2022-08-26T15:44:19.695Z,21.10
2022-08-26T15:46:48.962Z,20.84
2022-08-26T15:49:18.391Z,20.61
2022-08-26T15:51:50.256Z,20.49
2022-08-26T15:54:19.467Z,20.47
2022-08-26T15:56:50.503Z,20.37
2022-08-26T15:59:18.524Z,20.52
2022-08-26T16:01:46.590Z,20.49
2022-08-26T16:04:14.763Z,20.49
2022-08-26T16:06:43.572Z,20.41
2022-08-26T16:09:12.805Z,20.42
2022-08-26T16:11:40.456Z,20.38
2022-08-26T16:14:08.288Z,20.34
2022-08-26T16:16:39.189Z,20.35
2022-08-26T16:19:07.656Z,20.04
2022-08-26T16:21:35.862Z,19.98
2022-08-26T16:24:04.279Z,19.88
2022-08-26T16:26:35.110Z,19.86
2022-08-26T16:29:11.333Z,19.64
2022-08-26T16:31:39.455Z,19.67
2022-08-26T16:34:07.664Z,19.50
2022-08-26T16:36:36.119Z,19.54
2022-08-26T16:39:04.733Z,19.47
2022-08-26T16:41:34.064Z,19.43
2022-08-26T16:44:02.095Z,19.47
2022-08-26T16:46:29.939Z,19.48
2022-08-26T16:48:58.826Z,19.48
2022-08-26T16:51:28.138Z,19.43
2022-08-26T16:53:56.904Z,19.53
2022-08-26T16:56:33.503Z,19.55
2022-08-26T16:59:04.017Z,19.50
2022-08-26T17:01:31.734Z,19.39
2022-08-26T17:03:59.447Z,19.50
2022-08-26T17:06:27.420Z,19.46
2022-08-26T17:08:55.050Z,19.45
2022-08-26T17:11:22.759Z,19.55
2022-08-26T17:13:50.420Z,19.47
2022-08-26T17:16:22.258Z,19.31
2022-08-26T17:18:52.137Z,19.43
2022-08-26T17:21:19.783Z,19.42
2022-08-26T17:23:47.352Z,19.14
2022-08-26T17:26:15.008Z,19.15
2022-08-26T17:28:42.908Z,19.10
2022-08-26T17:31:11.764Z,18.97
2022-08-26T17:33:41.567Z,19.07
2022-08-26T17:36:09.959Z,19.06
2022-08-26T17:38:38.416Z,19.13
2022-08-26T17:41:08.230Z,19.06
2022-08-26T17:43:35.887Z,18.85
2022-08-26T17:46:07.179Z,18.85
2022-08-26T17:48:35.837Z,18.82
2022-08-26T17:51:09.128Z,18.84
2022-08-26T17:53:37.186Z,18.91
2022-08-26T17:56:08.153Z,18.86
2022-08-26T17:58:36.153Z,18.95
2022-08-26T18:01:05.865Z,19.00
2022-08-26T18:03:34.271Z,18.84
2022-08-26T18:06:02.012Z,18.96
2022-08-26T18:08:31.020Z,18.92
2022-08-26T18:10:58.983Z,18.81
2022-08-26T18:13:26.664Z,18.76
2022-08-26T18:15:54.403Z,18.71
2022-08-26T18:18:22.088Z,18.71
2022-08-26T18:20:51.945Z,18.73
2022-08-26T18:23:31.402Z,18.78
2022-08-26T18:25:59.339Z,18.66
2022-08-26T18:28:26.997Z,18.68
2022-08-26T18:30:54.696Z,18.60
2022-08-26T18:33:25.505Z,18.60
2022-08-26T18:35:53.753Z,18.58
2022-08-26T18:38:21.595Z,18.48
2022-08-26T18:40:51.888Z,18.54
2022-08-26T18:43:19.519Z,18.56
2022-08-26T18:45:47.329Z,18.59
2022-08-26T18:48:15.628Z,18.72
2022-08-26T18:50:47.188Z,18.52
2022-08-26T18:53:15.624Z,18.55
2022-08-26T18:55:43.651Z,18.48
2022-08-26T18:58:12.638Z,18.43
2022-08-26T19:00:40.304Z,18.38
2022-08-26T19:03:17.318Z,18.44
2022-08-26T19:05:47.372Z,18.50
2022-08-26T19:08:14.988Z,18.47
2022-08-26T19:10:42.797Z,18.42
2022-08-26T19:13:12.467Z,18.32
2022-08-26T19:15:42.121Z,18.36
2022-08-26T19:18:10.576Z,18.35
2022-08-26T19:20:41.540Z,18.34
2022-08-26T19:23:30.452Z,18.36
2022-08-26T19:25:59.780Z,18.39
2022-08-26T19:28:32.513Z,18.33
2022-08-26T19:31:00.805Z,18.38
2022-08-26T19:33:28.744Z,18.37
2022-08-26T19:35:56.483Z,18.40
2022-08-26T19:38:24.257Z,18.32
2022-08-26T19:40:55.511Z,18.43
2022-08-26T19:43:23.145Z,18.43
2022-08-26T19:45:52.174Z,18.53
2022-08-26T19:48:19.953Z,18.46
2022-08-26T19:50:47.835Z,18.41
2022-08-26T19:53:15.731Z,18.48
2022-08-26T19:55:43.553Z,18.47
2022-08-26T19:58:11.633Z,18.41
2022-08-26T20:00:39.745Z,18.47
2022-08-26T20:03:10.713Z,18.36
2022-08-26T20:05:43.510Z,18.26
2022-08-26T20:08:21.886Z,18.24
2022-08-26T20:10:50.576Z,18.30
2022-08-26T20:13:18.596Z,18.29
2022-08-26T20:15:46.307Z,18.27
2022-08-26T20:18:29.471Z,18.29
2022-08-26T20:21:14.595Z,18.33
2022-08-26T20:23:43.562Z,18.37
2022-08-26T20:26:11.182Z,18.31
2022-08-26T20:28:38.891Z,18.26
2022-08-26T20:31:06.725Z,18.23
2022-08-26T20:33:46.078Z,18.27
2022-08-26T20:36:15.041Z,18.22
2022-08-26T20:38:42.688Z,18.14
2022-08-26T20:41:10.456Z,17.89
2022-08-26T20:43:38.086Z,17.88
2022-08-26T20:46:10.578Z,17.94
2022-08-26T20:48:47.880Z,17.92
2022-08-26T20:51:16.065Z,17.81
2022-08-26T20:53:44.174Z,17.85
2022-08-26T20:56:13.495Z,17.93
2022-08-26T20:58:41.508Z,17.82
2022-08-26T21:01:17.670Z,17.81
2022-08-26T21:03:46.740Z,17.79
2022-08-26T21:06:14.525Z,17.80
2022-08-26T21:08:43.436Z,17.79
2022-08-26T21:11:12.752Z,17.85
2022-08-26T21:14:03.393Z,17.78
2022-08-26T21:16:28.476Z,17.84
2022-08-26T21:18:57.567Z,17.92
2022-08-26T21:21:28.055Z,17.89
2022-08-26T21:23:55.869Z,17.84
2022-08-26T21:26:23.924Z,17.86
2022-08-26T21:28:52.667Z,17.86
2022-08-26T21:31:22.542Z,17.76
2022-08-26T21:33:50.826Z,17.83
2022-08-26T21:36:20.711Z,17.67
2022-08-26T21:38:48.446Z,17.78
2022-08-26T21:41:19.171Z,17.65
2022-08-26T21:43:47.632Z,17.84
2022-08-26T21:46:22.808Z,17.90
2022-08-26T21:48:51.783Z,17.79
2022-08-26T21:51:22.723Z,17.67
2022-08-26T21:53:52.651Z,17.73
2022-08-26T21:56:20.983Z,17.73
2022-08-26T21:58:48.778Z,17.71
2022-08-26T22:01:21.668Z,17.68
2022-08-26T22:03:50.012Z,17.72
2022-08-26T22:06:18.963Z,17.76
2022-08-26T22:08:48.078Z,17.63
2022-08-26T22:11:15.993Z,17.61
2022-08-26T22:13:44.196Z,17.59
2022-08-26T22:16:12.697Z,17.52
2022-08-26T22:18:43.133Z,17.56
2022-08-26T22:21:13.872Z,17.54
2022-08-26T22:23:41.649Z,17.49
2022-08-26T22:26:11.846Z,17.42
2022-08-26T22:28:40.112Z,17.48
2022-08-26T22:31:10.079Z,17.52
2022-08-26T22:33:38.051Z,17.51
2022-08-26T22:36:06.130Z,17.56
2022-08-26T22:38:34.155Z,17.46
2022-08-26T22:41:04.374Z,17.53
2022-08-26T22:43:38.252Z,17.46
2022-08-26T22:46:09.364Z,17.42
2022-08-26T22:48:38.682Z,17.41
2022-08-26T22:51:06.433Z,17.39
2022-08-26T22:53:35.867Z,17.38
2022-08-26T22:56:06.966Z,17.38
2022-08-26T22:58:35.973Z,17.35
2022-08-26T23:01:04.462Z,17.34
2022-08-26T23:03:33.287Z,17.36
2022-08-26T23:06:01.508Z,17.25
2022-08-26T23:08:29.090Z,17.26
2022-08-26T23:10:56.783Z,17.29
2022-08-26T23:13:24.381Z,17.34
2022-08-26T23:16:00.998Z,17.30
2022-08-26T23:18:28.695Z,17.29
2022-08-26T23:20:56.659Z,17.19
2022-08-26T23:23:24.325Z,17.23
2022-08-26T23:25:51.994Z,17.31
2022-08-26T23:28:20.596Z,17.28
2022-08-26T23:30:48.676Z,17.30
2022-08-26T23:33:17.694Z,17.17
2022-08-26T23:35:44.411Z,17.19
2022-08-26T23:38:13.992Z,17.32
2022-08-26T23:40:42.300Z,17.31
2022-08-26T23:43:12.243Z,17.16
2022-08-26T23:45:40.098Z,17.15
2022-08-26T23:48:08.522Z,17.22
2022-08-26T23:50:55.403Z,17.19
2022-08-26T23:53:23.585Z,17.21
2022-08-26T23:55:53.084Z,17.04
2022-08-26T23:58:21.970Z,17.06
